createdAt,value
2022-10-21T00:00:30.339Z,10.00
2022-10-21T00:01:30.357Z,10.70
2022-10-21T00:02:30.339Z,10.50
2022-10-21T00:03:30.295Z,10.70
2022-10-21T00:04:30.309Z,10.70
2022-10-21T00:05:30.302Z,9.70
2022-10-21T00:06:30.306Z,11.00
2022-10-21T00:07:30.239Z,11.10
2022-10-21T00:08:30.284Z,10.90
2022-10-21T00:09:30.218Z,10.90
2022-10-21T00:10:30.296Z,9.90
2022-10-21T00:11:30.191Z,10.00
2022-10-21T00:12:30.224Z,10.20
2022-10-21T00:13:30.170Z,11.00
2022-10-21T00:14:30.153Z,10.30
2022-10-21T00:15:30.119Z,10.50
2022-10-21T00:16:30.117Z,10.90
2022-10-21T00:17:30.120Z,11.40
2022-10-21T00:18:30.104Z,11.30
2022-10-21T00:19:30.116Z,11.50
2022-10-21T00:20:31.165Z,11.40
2022-10-21T00:21:30.063Z,11.00
2022-10-21T00:22:30.036Z,11.00
2022-10-21T00:23:30.053Z,10.10
2022-10-21T00:24:30.031Z,11.00
2022-10-21T00:25:30.037Z,11.00
2022-10-21T00:26:31.926Z,10.60
2022-10-21T00:27:29.967Z,11.50
2022-10-21T00:28:29.970Z,11.00
2022-10-21T00:29:29.991Z,11.80
2022-10-21T00:30:29.963Z,11.20
2022-10-21T00:31:29.927Z,12.00
2022-10-21T00:32:29.939Z,11.90
2022-10-21T00:33:29.910Z,11.60
2022-10-21T00:34:31.019Z,11.50
2022-10-21T00:35:29.866Z,11.80
2022-10-21T00:36:29.861Z,11.80
2022-10-21T00:37:29.841Z,12.20
2022-10-21T00:38:29.871Z,11.40
2022-10-21T00:39:29.827Z,12.40
2022-10-21T00:40:29.833Z,11.30
2022-10-21T00:41:30.010Z,11.70
2022-10-21T00:42:29.818Z,12.20
2022-10-21T00:43:29.769Z,12.30
2022-10-21T00:44:29.787Z,12.20
2022-10-21T00:45:29.754Z,11.80
2022-10-21T00:46:29.743Z,12.10
2022-10-21T00:47:29.750Z,11.30
2022-10-21T00:48:29.718Z,12.70
2022-10-21T00:49:29.682Z,12.40
2022-10-21T00:50:29.722Z,12.10
2022-10-21T00:51:29.656Z,12.10
2022-10-21T00:52:29.654Z,12.10
2022-10-21T00:53:29.638Z,12.80
2022-10-21T00:54:29.631Z,12.10
2022-10-21T00:55:29.655Z,12.50
2022-10-21T00:56:29.585Z,12.90
2022-10-21T00:57:29.604Z,12.60
2022-10-21T00:58:29.592Z,12.20
2022-10-21T00:59:29.559Z,12.60
2022-10-21T01:00:29.538Z,12.90
2022-10-21T01:01:29.595Z,12.80
2022-10-21T01:02:29.532Z,12.80
2022-10-21T01:03:29.516Z,12.80
2022-10-21T01:04:29.566Z,12.30
2022-10-21T01:05:29.468Z,12.10
2022-10-21T01:06:29.471Z,12.00
2022-10-21T01:07:29.448Z,11.80
2022-10-21T01:08:29.603Z,11.10
2022-10-21T01:09:29.408Z,12.80
2022-10-21T01:10:29.392Z,13.30
2022-10-21T01:11:29.392Z,12.80
2022-10-21T01:12:29.402Z,12.40
2022-10-21T01:13:29.379Z,12.80
2022-10-21T01:14:29.354Z,12.50
2022-10-21T01:15:29.341Z,12.10
2022-10-21T01:16:29.323Z,11.60
2022-10-21T01:17:45.791Z,11.70
2022-10-21T01:18:29.302Z,11.90
2022-10-21T01:19:29.294Z,12.10
2022-10-21T01:20:29.265Z,13.20
2022-10-21T01:21:29.285Z,12.30
2022-10-21T01:22:29.260Z,12.40
2022-10-21T01:23:29.230Z,11.20
2022-10-21T01:24:29.209Z,12.40
2022-10-21T01:25:29.228Z,11.80
2022-10-21T01:26:29.192Z,11.20
2022-10-21T01:27:29.219Z,11.00
2022-10-21T01:28:29.163Z,11.10
2022-10-21T01:29:29.151Z,11.50
2022-10-21T01:30:29.157Z,10.40
2022-10-21T01:31:29.121Z,10.50
2022-10-21T01:32:29.116Z,10.60
2022-10-21T01:33:29.114Z,9.70
2022-10-21T01:34:29.126Z,10.10
2022-10-21T01:35:29.074Z,10.30
2022-10-21T01:36:29.049Z,10.20
2022-10-21T01:37:29.077Z,9.80
2022-10-21T01:38:29.028Z,9.60
2022-10-21T01:39:29.053Z,10.10
2022-10-21T01:40:29.483Z,10.60
2022-10-21T01:41:29.004Z,10.00
2022-10-21T01:42:28.993Z,10.10
2022-10-21T01:43:28.972Z,9.60
2022-10-21T01:44:28.936Z,9.20
2022-10-21T01:45:28.932Z,9.40
2022-10-21T01:46:28.941Z,9.70
2022-10-21T01:47:28.950Z,11.00
2022-10-21T01:48:28.889Z,10.00
2022-10-21T01:49:28.888Z,10.10
2022-10-21T01:50:28.895Z,11.00
2022-10-21T01:51:28.875Z,10.40
2022-10-21T01:52:28.847Z,10.20
2022-10-21T01:53:28.837Z,11.70
2022-10-21T01:54:28.814Z,10.30
2022-10-21T01:55:28.847Z,11.10
2022-10-21T01:56:28.843Z,9.90
2022-10-21T01:57:28.793Z,10.50
2022-10-21T01:58:28.773Z,10.30
2022-10-21T01:59:28.758Z,10.30
2022-10-21T02:00:28.748Z,10.20
2022-10-21T02:01:28.792Z,10.10
2022-10-21T02:02:28.730Z,10.80
2022-10-21T02:03:28.713Z,10.50
2022-10-21T02:04:28.687Z,11.40
2022-10-21T02:05:28.687Z,11.60
2022-10-21T02:06:28.664Z,11.10
2022-10-21T02:07:28.658Z,11.60
2022-10-21T02:08:28.744Z,10.90
2022-10-21T02:09:28.690Z,10.30
2022-10-21T02:10:28.603Z,10.60
2022-10-21T02:11:28.600Z,10.50
2022-10-21T02:12:28.566Z,10.00
2022-10-21T02:13:28.557Z,10.50
2022-10-21T02:14:28.557Z,11.00
2022-10-21T02:15:28.538Z,11.10
2022-10-21T02:16:28.543Z,11.20
2022-10-21T02:17:28.518Z,10.50
2022-10-21T02:18:28.515Z,10.40
2022-10-21T02:19:28.564Z,12.00
2022-10-21T02:20:28.482Z,11.50
2022-10-21T02:21:28.448Z,12.10
2022-10-21T02:22:28.445Z,11.80
2022-10-21T02:23:28.432Z,12.50
2022-10-21T02:24:28.418Z,12.70
2022-10-21T02:25:28.446Z,12.70
2022-10-21T02:26:28.387Z,12.40
2022-10-21T02:27:28.386Z,11.70
2022-10-21T02:28:28.432Z,11.10
2022-10-21T02:29:28.379Z,11.30
2022-10-21T02:30:28.375Z,11.40
2022-10-21T02:31:28.341Z,11.30
2022-10-21T02:32:28.318Z,11.90
2022-10-21T02:33:28.297Z,10.40
2022-10-21T02:34:28.298Z,11.30
2022-10-21T02:35:28.280Z,10.40
2022-10-21T02:36:28.261Z,11.00
2022-10-21T02:37:28.322Z,10.00
2022-10-21T02:38:28.247Z,10.70
2022-10-21T02:39:28.228Z,10.70
2022-10-21T02:40:28.215Z,10.60
2022-10-21T02:41:28.231Z,10.30
2022-10-21T02:42:28.179Z,10.80
2022-10-21T02:43:28.174Z,9.30
2022-10-21T02:44:28.141Z,9.40
2022-10-21T02:45:28.191Z,9.20
2022-10-21T02:46:28.156Z,9.80
2022-10-21T02:47:28.101Z,9.30
2022-10-21T02:48:28.103Z,9.70
2022-10-21T02:49:28.083Z,9.10
2022-10-21T02:50:28.079Z,9.00
2022-10-21T02:51:28.083Z,9.40
2022-10-21T02:52:28.055Z,9.80
2022-10-21T02:53:28.040Z,10.10
2022-10-21T02:54:28.014Z,9.90
2022-10-21T02:55:28.012Z,9.70
2022-10-21T02:57:28.002Z,10.40
2022-10-21T02:58:27.979Z,10.00
2022-10-21T02:59:27.962Z,9.90
2022-10-21T03:00:32.061Z,10.40
2022-10-21T03:01:27.993Z,12.10
2022-10-21T03:02:27.901Z,17.50
2022-10-21T03:03:27.923Z,17.00
2022-10-21T03:04:27.914Z,17.00
2022-10-21T03:05:27.949Z,17.50
2022-10-21T03:06:27.869Z,15.10
2022-10-21T03:07:27.872Z,15.30
2022-10-21T03:08:27.855Z,14.90
2022-10-21T03:09:27.813Z,14.70
2022-10-21T03:10:27.784Z,13.40
2022-10-21T03:11:27.798Z,15.20
2022-10-21T03:12:27.794Z,15.00
2022-10-21T03:13:27.779Z,14.50
2022-10-21T03:14:27.759Z,12.50
2022-10-21T03:15:27.746Z,13.90
2022-10-21T03:16:27.727Z,13.10
2022-10-21T03:17:27.739Z,12.70
2022-10-21T03:18:27.714Z,13.10
2022-10-21T03:19:27.708Z,11.40
2022-10-21T03:20:27.662Z,11.20
2022-10-21T03:21:27.658Z,11.40
2022-10-21T03:22:27.658Z,11.10
2022-10-21T03:23:27.629Z,10.60
2022-10-21T03:24:29.002Z,10.90
2022-10-21T03:25:29.733Z,10.90
2022-10-21T03:26:27.598Z,11.20
2022-10-21T03:27:27.635Z,11.50
2022-10-21T03:28:27.560Z,10.90
2022-10-21T03:29:27.567Z,10.50
2022-10-21T03:30:27.534Z,10.90
2022-10-21T03:31:27.518Z,11.30
2022-10-21T03:32:27.562Z,10.70
2022-10-21T03:33:27.507Z,11.20
2022-10-21T03:34:27.468Z,11.30
2022-10-21T03:35:27.473Z,11.90
2022-10-21T03:36:27.480Z,11.60
2022-10-21T03:37:27.446Z,11.90
2022-10-21T03:38:27.439Z,11.60
2022-10-21T03:39:27.420Z,10.60
2022-10-21T03:40:27.406Z,10.60
2022-10-21T03:41:27.413Z,10.50
2022-10-21T03:42:27.368Z,10.80
2022-10-21T03:43:27.372Z,10.90
2022-10-21T03:44:27.342Z,11.00
2022-10-21T03:45:27.495Z,10.10
2022-10-21T03:46:27.323Z,10.20
2022-10-21T03:47:27.298Z,10.80
2022-10-21T03:48:27.322Z,10.40
2022-10-21T03:49:27.359Z,11.30
2022-10-21T03:50:27.294Z,11.00
2022-10-21T03:51:27.263Z,11.00
2022-10-21T03:52:27.246Z,11.00
2022-10-21T03:53:42.177Z,10.90
2022-10-21T03:54:27.235Z,10.90
2022-10-21T03:55:27.194Z,18.90
2022-10-21T03:56:27.200Z,20.10
2022-10-21T03:57:27.194Z,15.30
2022-10-21T03:58:27.172Z,16.10
2022-10-21T03:59:27.176Z,14.50
2022-10-21T04:00:29.511Z,14.20
2022-10-21T04:01:27.180Z,13.80
2022-10-21T04:02:27.110Z,16.00
2022-10-21T04:03:27.106Z,13.90
2022-10-21T04:04:27.091Z,14.50
2022-10-21T04:05:27.063Z,13.90
2022-10-21T04:06:27.073Z,12.80
2022-10-21T04:07:27.047Z,12.00
2022-10-21T04:08:27.023Z,12.00
2022-10-21T04:09:27.043Z,12.40
2022-10-21T04:10:27.010Z,11.40
2022-10-21T04:11:27.010Z,11.90
2022-10-21T04:12:26.982Z,11.70
2022-10-21T04:13:26.972Z,12.60
2022-10-21T04:14:26.931Z,11.60
2022-10-21T04:15:26.953Z,11.80
2022-10-21T04:16:26.924Z,11.90
2022-10-21T04:17:26.922Z,12.40
2022-10-21T04:18:26.898Z,11.80
2022-10-21T04:19:26.925Z,11.70
2022-10-21T04:20:26.904Z,11.90
2022-10-21T04:21:26.857Z,12.10
2022-10-21T04:22:26.855Z,12.70
2022-10-21T04:23:26.817Z,12.00
2022-10-21T04:24:26.804Z,11.80
2022-10-21T04:25:26.788Z,13.10
2022-10-21T04:26:26.797Z,12.90
2022-10-21T04:27:26.778Z,12.60
2022-10-21T04:28:26.762Z,12.70
2022-10-21T04:29:26.772Z,13.10
2022-10-21T04:30:26.722Z,12.50
2022-10-21T04:31:31.233Z,13.50
2022-10-21T04:32:26.730Z,13.70
2022-10-21T04:33:26.722Z,13.30
2022-10-21T04:34:26.669Z,12.60
2022-10-21T04:35:26.670Z,13.60
2022-10-21T04:36:26.666Z,12.70
2022-10-21T04:37:26.660Z,12.20
2022-10-21T04:38:26.623Z,12.50
2022-10-21T04:39:26.643Z,12.40
2022-10-21T04:40:26.593Z,13.40
2022-10-21T04:41:26.609Z,13.00
2022-10-21T04:43:26.559Z,13.00
2022-10-21T04:44:26.561Z,12.50
2022-10-21T04:45:26.557Z,12.60
2022-10-21T04:46:26.517Z,12.60
2022-10-21T04:47:26.509Z,13.50
2022-10-21T04:48:26.519Z,12.80
2022-10-21T04:49:26.505Z,13.10
2022-10-21T04:50:26.481Z,12.90
2022-10-21T04:51:26.481Z,13.10
2022-10-21T04:52:26.434Z,12.70
2022-10-21T04:53:26.442Z,12.90
2022-10-21T04:54:26.420Z,12.50
2022-10-21T04:55:26.441Z,12.90
2022-10-21T04:56:26.384Z,12.40
2022-10-21T04:57:26.441Z,12.10
2022-10-21T04:58:26.357Z,12.30
2022-10-21T04:59:26.381Z,11.90
2022-10-21T05:00:26.324Z,12.80
2022-10-21T05:01:26.404Z,12.50
2022-10-21T05:02:26.299Z,12.70
2022-10-21T05:03:26.315Z,12.00
2022-10-21T05:04:26.295Z,11.30
2022-10-21T05:05:26.263Z,11.60
2022-10-21T05:06:26.235Z,12.30
2022-10-21T05:07:26.231Z,13.00
2022-10-21T05:08:26.254Z,13.30
2022-10-21T05:09:26.241Z,11.90
2022-10-21T05:10:26.190Z,12.40
2022-10-21T05:11:26.165Z,12.30
2022-10-21T05:12:26.215Z,12.00
2022-10-21T05:13:26.163Z,12.70
2022-10-21T05:14:26.166Z,11.40
2022-10-21T05:15:26.127Z,12.50
2022-10-21T05:16:26.135Z,12.10
2022-10-21T05:17:26.103Z,11.90
2022-10-21T05:18:26.122Z,12.10
2022-10-21T05:19:30.358Z,12.40
2022-10-21T05:20:26.058Z,12.30
2022-10-21T05:21:26.065Z,11.90
2022-10-21T05:22:26.037Z,11.90
2022-10-21T05:23:26.012Z,12.10
2022-10-21T05:24:26.038Z,12.30
2022-10-21T05:25:26.002Z,12.10
2022-10-21T05:26:25.982Z,11.60
2022-10-21T05:27:25.959Z,11.50
2022-10-21T05:28:25.949Z,12.30
2022-10-21T05:29:25.959Z,11.20
2022-10-21T05:30:25.941Z,12.20
2022-10-21T05:31:25.983Z,12.20
2022-10-21T05:32:25.892Z,12.10
2022-10-21T05:33:25.952Z,12.00
2022-10-21T05:34:25.872Z,12.70
2022-10-21T05:35:25.851Z,12.10
2022-10-21T05:36:25.858Z,12.00
2022-10-21T05:37:25.823Z,12.30
2022-10-21T05:38:25.859Z,12.10
2022-10-21T05:39:25.827Z,11.80
2022-10-21T05:40:25.789Z,11.80
2022-10-21T05:41:25.792Z,12.60
2022-10-21T05:42:25.796Z,11.90
2022-10-21T05:43:25.767Z,12.00
2022-10-21T05:44:25.739Z,12.00
2022-10-21T05:45:25.736Z,11.50
2022-10-21T05:46:25.723Z,11.60
2022-10-21T05:47:25.740Z,11.10
2022-10-21T05:48:25.736Z,10.70
2022-10-21T05:49:25.727Z,11.90
2022-10-21T05:50:25.681Z,11.50
2022-10-21T05:51:25.645Z,11.90
2022-10-21T05:52:25.696Z,11.90
2022-10-21T05:53:25.621Z,12.00
2022-10-21T05:54:25.610Z,11.40
2022-10-21T05:55:25.603Z,12.20
2022-10-21T05:56:25.628Z,11.80
2022-10-21T05:57:25.573Z,11.50
2022-10-21T05:58:25.563Z,11.10
2022-10-21T05:59:25.561Z,11.40
2022-10-21T06:00:25.542Z,11.30
2022-10-21T06:01:25.568Z,11.90
2022-10-21T06:02:25.533Z,11.50
2022-10-21T06:03:25.487Z,11.80
2022-10-21T06:04:25.491Z,11.40
2022-10-21T06:05:25.447Z,12.00
2022-10-21T06:06:25.457Z,11.40
2022-10-21T06:07:25.459Z,11.20
2022-10-21T06:08:25.454Z,11.50
2022-10-21T06:09:25.439Z,11.30
2022-10-21T06:10:28.253Z,11.00
2022-10-21T06:11:25.378Z,11.40
2022-10-21T06:12:25.385Z,11.60
2022-10-21T06:13:25.360Z,11.60
2022-10-21T06:14:25.332Z,12.40
2022-10-21T06:15:25.321Z,11.40
2022-10-21T06:16:25.341Z,11.60
2022-10-21T06:17:25.297Z,11.90
2022-10-21T06:18:25.330Z,11.90
2022-10-21T06:19:25.300Z,11.70
2022-10-21T06:20:25.264Z,11.90
2022-10-21T06:21:25.228Z,11.10
2022-10-21T06:22:25.333Z,12.10
2022-10-21T06:23:25.209Z,12.40
2022-10-21T06:24:25.237Z,11.40
2022-10-21T06:25:25.227Z,11.70
2022-10-21T06:26:25.199Z,11.60
2022-10-21T06:27:25.176Z,11.60
2022-10-21T06:28:25.188Z,12.00
2022-10-21T06:29:25.124Z,11.40
2022-10-21T06:30:25.149Z,13.10
2022-10-21T06:31:25.109Z,12.00
2022-10-21T06:32:25.114Z,11.60
2022-10-21T06:33:27.028Z,11.60
2022-10-21T06:34:25.149Z,11.40
2022-10-21T06:35:25.046Z,11.80
2022-10-21T06:36:25.042Z,12.70
2022-10-21T06:37:25.042Z,12.80
2022-10-21T06:38:25.022Z,12.70
2022-10-21T06:39:25.188Z,12.50
2022-10-21T06:40:24.989Z,12.40
2022-10-21T06:41:24.977Z,12.50
2022-10-21T06:42:24.974Z,12.20
2022-10-21T06:43:24.961Z,12.40
2022-10-21T06:44:24.985Z,12.40
2022-10-21T06:45:24.942Z,12.20
2022-10-21T06:46:24.920Z,11.90
2022-10-21T06:47:24.948Z,11.80
2022-10-21T06:48:24.893Z,12.70
2022-10-21T06:49:24.889Z,12.60
2022-10-21T06:50:24.859Z,12.60
2022-10-21T06:51:24.862Z,12.20
2022-10-21T06:53:24.813Z,12.20
2022-10-21T06:54:24.837Z,12.10
2022-10-21T06:55:24.778Z,11.40
2022-10-21T06:56:24.815Z,11.00
2022-10-21T06:57:24.759Z,11.40
2022-10-21T06:58:24.773Z,11.60
2022-10-21T06:59:24.751Z,11.30
2022-10-21T07:00:24.752Z,11.40
2022-10-21T07:01:34.427Z,11.00
2022-10-21T07:02:24.740Z,11.20
2022-10-21T07:03:24.678Z,11.40
2022-10-21T07:04:24.692Z,10.50
2022-10-21T07:05:24.649Z,10.90
2022-10-21T07:06:24.686Z,10.90
2022-10-21T07:07:24.644Z,11.40
2022-10-21T07:08:39.776Z,11.10
2022-10-21T07:09:24.692Z,11.40
2022-10-21T07:10:24.665Z,11.10
2022-10-21T07:11:24.565Z,11.90
2022-10-21T07:12:24.605Z,11.10
2022-10-21T07:13:25.962Z,10.80
2022-10-21T07:14:24.555Z,12.00
2022-10-21T07:15:24.539Z,11.60
2022-10-21T07:16:24.516Z,12.20
2022-10-21T07:17:24.484Z,11.20
2022-10-21T07:18:24.507Z,10.70
2022-10-21T07:19:24.474Z,10.90
2022-10-21T07:20:24.536Z,10.70
2022-10-21T07:21:24.440Z,11.20
2022-10-21T07:22:24.433Z,11.50
2022-10-21T07:23:24.536Z,11.20
2022-10-21T07:24:24.425Z,10.70
2022-10-21T07:25:24.417Z,11.60
2022-10-21T07:26:24.395Z,11.40
2022-10-21T07:27:24.365Z,11.90
2022-10-21T07:28:24.389Z,10.90
2022-10-21T07:29:24.396Z,11.20
2022-10-21T07:30:24.374Z,11.40
2022-10-21T07:31:24.328Z,10.70
2022-10-21T07:32:24.289Z,11.10
2022-10-21T07:33:24.300Z,11.00
2022-10-21T07:34:24.271Z,10.80
2022-10-21T07:35:24.292Z,11.00
2022-10-21T07:36:24.273Z,10.70
2022-10-21T07:37:24.231Z,10.70
2022-10-21T07:38:24.208Z,10.60
2022-10-21T07:39:24.249Z,11.30
2022-10-21T07:40:24.250Z,10.50
2022-10-21T07:41:24.160Z,10.70
2022-10-21T07:42:24.179Z,10.40
2022-10-21T07:43:24.150Z,10.90
2022-10-21T07:44:24.198Z,10.70
2022-10-21T07:45:24.176Z,10.00
2022-10-21T07:46:24.106Z,11.00
2022-10-21T07:47:24.310Z,10.70
2022-10-21T07:48:24.073Z,10.60
2022-10-21T07:49:24.069Z,10.10
2022-10-21T07:50:24.063Z,10.30
2022-10-21T07:51:28.391Z,10.60
2022-10-21T07:52:24.037Z,10.60
2022-10-21T07:53:24.035Z,10.60
2022-10-21T07:54:24.014Z,10.80
2022-10-21T07:55:23.992Z,10.80
2022-10-21T07:56:23.992Z,10.80
2022-10-21T07:57:23.992Z,11.10
2022-10-21T07:58:23.954Z,11.30
2022-10-21T07:59:23.918Z,11.10
2022-10-21T08:00:23.932Z,11.50
2022-10-21T08:01:23.994Z,10.80
2022-10-21T08:02:23.925Z,11.50
2022-10-21T08:03:23.896Z,10.90
2022-10-21T08:04:23.900Z,12.30
2022-10-21T08:05:23.861Z,11.70
2022-10-21T08:06:23.853Z,11.90
2022-10-21T08:07:23.830Z,12.10
2022-10-21T08:08:23.846Z,11.10
2022-10-21T08:09:23.815Z,11.30
2022-10-21T08:10:23.782Z,11.20
2022-10-21T08:11:23.811Z,11.40
2022-10-21T08:12:23.770Z,11.10
2022-10-21T08:13:23.766Z,11.60
2022-10-21T08:14:23.772Z,12.60
2022-10-21T08:15:23.771Z,11.90
2022-10-21T08:16:23.782Z,11.40
2022-10-21T08:17:23.713Z,10.70
2022-10-21T08:18:23.700Z,11.60
2022-10-21T08:19:23.673Z,11.30
2022-10-21T08:20:23.808Z,11.90
2022-10-21T08:21:23.642Z,11.20
2022-10-21T08:22:23.653Z,11.00
2022-10-21T08:23:23.618Z,11.50
2022-10-21T08:24:23.604Z,10.40
2022-10-21T08:25:23.611Z,11.30
2022-10-21T08:26:23.618Z,11.20
2022-10-21T08:27:23.563Z,10.30
2022-10-21T08:28:23.572Z,10.80
2022-10-21T08:29:23.543Z,10.70
2022-10-21T08:30:23.563Z,10.10
2022-10-21T08:31:23.516Z,10.30
2022-10-21T08:32:23.530Z,10.10
2022-10-21T08:33:23.517Z,10.30
2022-10-21T08:34:23.505Z,10.00
2022-10-21T08:35:23.480Z,9.70
2022-10-21T08:36:23.453Z,9.30
2022-10-21T08:37:25.617Z,10.10
2022-10-21T08:38:23.424Z,9.10
2022-10-21T08:39:23.416Z,9.30
2022-10-21T08:40:23.406Z,9.30
2022-10-21T08:41:23.394Z,9.80
2022-10-21T08:42:23.425Z,9.00
2022-10-21T08:43:23.389Z,8.90
2022-10-21T08:44:23.352Z,9.20
2022-10-21T08:45:23.361Z,8.60
2022-10-21T08:46:23.315Z,9.00
2022-10-21T08:47:23.293Z,7.70
2022-10-21T08:48:23.290Z,8.60
2022-10-21T08:49:25.138Z,8.90
2022-10-21T08:50:23.266Z,8.50
2022-10-21T08:51:23.250Z,7.80
2022-10-21T08:52:23.231Z,8.10
2022-10-21T08:53:23.204Z,7.30
2022-10-21T08:54:23.232Z,7.50
2022-10-21T08:55:23.194Z,7.90
2022-10-21T08:57:23.178Z,6.70
2022-10-21T08:58:23.146Z,6.50
2022-10-21T08:59:23.156Z,7.40
2022-10-21T09:00:23.141Z,6.30
2022-10-21T09:01:23.144Z,6.80
2022-10-21T09:02:23.102Z,7.00
2022-10-21T09:03:23.135Z,6.50
2022-10-21T09:04:23.138Z,6.80
2022-10-21T09:05:23.111Z,6.60
2022-10-21T09:06:23.086Z,7.10
2022-10-21T09:07:23.069Z,6.90
2022-10-21T09:08:23.015Z,6.80
2022-10-21T09:09:23.041Z,6.20
2022-10-21T09:10:23.019Z,6.20
2022-10-21T09:11:22.978Z,6.70
2022-10-21T09:12:22.965Z,6.10
2022-10-21T09:13:22.970Z,6.10
2022-10-21T09:14:22.996Z,6.40
2022-10-21T09:15:22.936Z,6.10
2022-10-21T09:16:22.930Z,6.60
2022-10-21T09:17:22.907Z,6.00
2022-10-21T09:18:22.898Z,5.60
2022-10-21T09:19:22.898Z,5.50
2022-10-21T09:20:22.872Z,5.70
2022-10-21T09:21:22.855Z,6.30
2022-10-21T09:22:34.848Z,4.60
2022-10-21T09:23:22.889Z,4.70
2022-10-21T09:24:22.806Z,3.90
2022-10-21T09:25:22.791Z,4.40
2022-10-21T09:26:26.513Z,3.90
2022-10-21T09:27:31.901Z,4.40
2022-10-21T09:28:22.833Z,4.00
2022-10-21T09:29:22.775Z,4.70
2022-10-21T09:30:23.078Z,4.40
2022-10-21T09:31:22.743Z,4.00
2022-10-21T09:32:22.766Z,4.20
2022-10-21T09:33:22.716Z,3.30
2022-10-21T09:34:22.679Z,3.90
2022-10-21T09:35:22.681Z,3.90
2022-10-21T09:36:22.679Z,3.70
2022-10-21T09:37:22.698Z,3.60
2022-10-21T09:38:22.622Z,3.60
2022-10-21T09:39:22.655Z,3.30
2022-10-21T09:40:22.591Z,3.30
2022-10-21T09:42:45.802Z,3.30
2022-10-21T09:43:22.592Z,2.80
2022-10-21T09:44:22.561Z,3.20
2022-10-21T09:45:22.525Z,3.40
2022-10-21T09:46:22.536Z,3.90
2022-10-21T09:47:22.505Z,3.70
2022-10-21T09:48:22.489Z,2.70
2022-10-21T09:49:47.838Z,3.00
2022-10-21T09:50:22.511Z,2.60
2022-10-21T09:51:23.338Z,2.30
2022-10-21T09:52:22.456Z,2.80
2022-10-21T09:53:25.582Z,3.70
2022-10-21T09:54:22.425Z,3.60
2022-10-21T09:55:22.496Z,3.10
2022-10-21T09:56:22.379Z,3.00
2022-10-21T09:57:22.394Z,3.00
2022-10-21T09:58:22.372Z,3.70
2022-10-21T09:59:22.371Z,2.60
2022-10-21T10:00:22.369Z,2.80
2022-10-21T10:01:22.339Z,2.60
2022-10-21T10:02:22.305Z,2.90
2022-10-21T10:03:22.327Z,2.60
2022-10-21T10:04:22.308Z,2.70
2022-10-21T10:05:22.308Z,2.10
2022-10-21T10:06:22.256Z,2.40
2022-10-21T10:07:22.236Z,2.40
2022-10-21T10:08:22.313Z,2.10
2022-10-21T10:09:22.221Z,2.60
2022-10-21T10:10:22.223Z,2.40
2022-10-21T10:11:22.195Z,2.70
2022-10-21T10:12:22.223Z,2.10
2022-10-21T10:13:22.162Z,2.30
2022-10-21T10:14:22.137Z,2.20
2022-10-21T10:15:22.134Z,2.80
2022-10-21T10:16:22.157Z,2.50
2022-10-21T10:17:22.131Z,2.50
2022-10-21T10:18:22.166Z,2.40
2022-10-21T10:19:22.201Z,2.80
2022-10-21T10:20:22.075Z,2.60
2022-10-21T10:21:22.085Z,2.80
2022-10-21T10:22:22.045Z,2.40
2022-10-21T10:23:22.048Z,2.70
2022-10-21T10:24:22.035Z,2.50
2022-10-21T10:25:22.021Z,2.70
2022-10-21T10:26:21.985Z,2.20
2022-10-21T10:27:21.986Z,2.50
2022-10-21T10:28:21.984Z,2.70
2022-10-21T10:29:21.964Z,2.60
2022-10-21T10:30:21.936Z,2.80
2022-10-21T10:31:21.929Z,2.30
2022-10-21T10:32:21.929Z,2.80
2022-10-21T10:33:21.887Z,2.70
2022-10-21T10:34:21.955Z,2.30
2022-10-21T10:35:21.855Z,2.80
2022-10-21T10:36:21.867Z,2.40
2022-10-21T10:37:21.867Z,2.40
2022-10-21T10:38:21.828Z,2.10
2022-10-21T10:39:21.835Z,2.30
2022-10-21T10:40:21.802Z,2.90
2022-10-21T10:41:21.773Z,2.50
2022-10-21T10:42:21.771Z,2.40
2022-10-21T10:43:21.776Z,2.20
2022-10-21T10:44:21.762Z,2.50
2022-10-21T10:45:21.731Z,2.70
2022-10-21T10:46:21.724Z,2.40
2022-10-21T10:47:21.726Z,3.70
2022-10-21T10:48:21.693Z,3.60
2022-10-21T10:49:21.702Z,2.70
2022-10-21T10:50:21.671Z,2.90
2022-10-21T10:51:21.633Z,2.40
2022-10-21T10:52:21.648Z,2.70
2022-10-21T10:53:21.652Z,2.70
2022-10-21T10:54:21.618Z,2.80
2022-10-21T10:55:21.650Z,3.30
2022-10-21T10:56:21.600Z,2.80
2022-10-21T10:57:26.536Z,2.70
2022-10-21T10:58:24.198Z,2.50
2022-10-21T10:59:21.551Z,2.70
2022-10-21T11:00:21.523Z,3.20
2022-10-21T11:01:21.570Z,2.80
2022-10-21T11:02:21.496Z,2.80
2022-10-21T11:03:25.847Z,2.50
2022-10-21T11:04:21.487Z,2.80
2022-10-21T11:05:21.473Z,2.60
2022-10-21T11:06:21.443Z,2.40
2022-10-21T11:07:21.469Z,2.30
2022-10-21T11:08:21.426Z,2.20
2022-10-21T11:09:23.826Z,2.70
2022-10-21T11:10:21.416Z,2.70
2022-10-21T11:11:21.382Z,2.70
2022-10-21T11:12:21.387Z,2.30
2022-10-21T11:13:21.392Z,3.10
2022-10-21T11:14:22.679Z,2.70
2022-10-21T11:15:21.327Z,2.60
2022-10-21T11:16:21.363Z,2.90
2022-10-21T11:17:21.302Z,2.80
2022-10-21T11:18:25.166Z,2.50
2022-10-21T11:19:21.280Z,2.60
2022-10-21T11:20:21.284Z,2.40
2022-10-21T11:21:21.261Z,2.40
2022-10-21T11:22:21.234Z,2.60
2022-10-21T11:23:21.319Z,2.70
2022-10-21T11:24:21.210Z,2.80
2022-10-21T11:25:21.208Z,2.90
2022-10-21T11:26:21.197Z,2.50
2022-10-21T11:27:21.167Z,2.70
2022-10-21T11:28:21.154Z,3.10
2022-10-21T11:29:21.179Z,3.30
2022-10-21T11:30:21.150Z,2.60
2022-10-21T11:31:21.141Z,2.70
2022-10-21T11:32:21.147Z,2.50
2022-10-21T11:33:21.128Z,2.10
2022-10-21T11:34:21.091Z,2.20
2022-10-21T11:35:21.113Z,2.20
2022-10-21T11:36:21.041Z,2.60
2022-10-21T11:37:21.043Z,2.40
2022-10-21T11:38:21.025Z,2.10
2022-10-21T11:39:21.671Z,2.20
2022-10-21T11:40:21.048Z,1.90
2022-10-21T11:41:22.994Z,2.50
2022-10-21T11:42:20.984Z,2.00
2022-10-21T11:43:20.947Z,2.20
2022-10-21T11:44:20.946Z,2.00
2022-10-21T11:45:20.959Z,1.80
2022-10-21T11:46:20.927Z,1.80
2022-10-21T11:47:20.919Z,1.80
2022-10-21T11:48:20.888Z,1.80
2022-10-21T11:49:20.864Z,2.20
2022-10-21T11:51:20.872Z,2.00
2022-10-21T11:52:20.892Z,2.00
2022-10-21T11:53:20.829Z,1.90
2022-10-21T11:54:20.808Z,2.20
2022-10-21T11:55:20.810Z,2.20
2022-10-21T11:56:20.832Z,1.70
2022-10-21T11:57:20.814Z,2.10
2022-10-21T11:58:20.780Z,1.90
2022-10-21T11:59:20.845Z,1.50
2022-10-21T12:00:20.752Z,2.90
2022-10-21T12:01:20.732Z,1.80
2022-10-21T12:02:20.759Z,2.20
2022-10-21T12:03:20.716Z,10.00
2022-10-21T12:04:20.687Z,10.70
2022-10-21T12:05:20.650Z,6.40
2022-10-21T12:06:20.659Z,10.80
2022-10-21T12:07:20.687Z,7.40
2022-10-21T12:08:20.694Z,5.50
2022-10-21T12:09:20.620Z,2.90
2022-10-21T12:10:20.620Z,12.40
2022-10-21T12:11:20.589Z,3.20
2022-10-21T12:12:20.580Z,9.70
2022-10-21T12:13:20.572Z,7.70
2022-10-21T12:14:20.540Z,11.20
2022-10-21T12:15:20.546Z,4.50
2022-10-21T12:16:20.513Z,2.80
2022-10-21T12:17:20.501Z,2.60
2022-10-21T12:18:20.522Z,2.00
2022-10-21T12:19:20.498Z,2.30
2022-10-21T12:20:23.708Z,1.90
2022-10-21T12:21:20.437Z,2.00
2022-10-21T12:22:20.503Z,2.50
2022-10-21T12:23:20.450Z,2.10
2022-10-21T12:24:20.418Z,2.00
2022-10-21T12:25:20.409Z,1.70
2022-10-21T12:26:20.387Z,2.00
2022-10-21T12:27:20.367Z,1.70
2022-10-21T12:28:20.387Z,1.60
2022-10-21T12:29:20.378Z,1.80
2022-10-21T12:30:23.454Z,1.80
2022-10-21T12:31:20.337Z,2.00
2022-10-21T12:32:20.299Z,1.60
2022-10-21T12:33:20.310Z,1.80
2022-10-21T12:34:20.280Z,1.70
2022-10-21T12:35:20.294Z,1.60
2022-10-21T12:36:20.266Z,1.40
2022-10-21T12:37:20.244Z,1.80
2022-10-21T12:38:20.234Z,1.50
2022-10-21T12:39:20.197Z,1.60
2022-10-21T12:40:20.221Z,1.80
2022-10-21T12:41:20.179Z,2.70
2022-10-21T12:42:20.164Z,1.90
2022-10-21T12:43:20.182Z,2.40
2022-10-21T12:44:20.138Z,2.10
2022-10-21T12:45:20.170Z,1.90
2022-10-21T12:46:20.125Z,2.50
2022-10-21T12:47:20.086Z,2.90
2022-10-21T12:48:20.112Z,3.20
2022-10-21T12:49:20.066Z,2.90
2022-10-21T12:50:20.095Z,3.40
2022-10-21T12:51:20.046Z,2.10
2022-10-21T12:52:20.076Z,1.70
2022-10-21T12:53:20.017Z,1.30
2022-10-21T12:54:20.048Z,1.40
2022-10-21T12:55:20.164Z,1.40
2022-10-21T12:56:20.069Z,1.50
2022-10-21T12:57:19.952Z,1.50
2022-10-21T12:58:19.955Z,1.20
2022-10-21T12:59:19.960Z,1.40
2022-10-21T13:00:19.964Z,1.50
2022-10-21T13:01:20.193Z,1.10
2022-10-21T13:02:19.897Z,1.40
2022-10-21T13:03:20.268Z,1.10
2022-10-21T13:04:19.879Z,1.30
2022-10-21T13:05:19.890Z,1.30
2022-10-21T13:06:19.836Z,1.60
2022-10-21T13:07:19.821Z,1.40